Laramie Regional Airport
KLAR : now visible

Airfield :











YOU CAN JOIN US ON...

 
LOGIN :

Register | Disclaimer

   EN    FR    IT 

 









Legend :    VFR   Marginal VFR   IFR   Intensive IFR   Very Intensive IFR
Visi :
Ceiling :
>= 8 km
>= 3000ft
5 to 8 km
1000 to 3000 ft
1500m to 5 km
500 to 1000 ft
800 to 1500m
200 to 500 ft
< 800m
< 200 ft
Symbols :   Thunderstorms  Fog  Heavy snow  Heavy precipitations  Wind > 20 kt






- Airport Elevation : 7284 ft
- IATA code : LAR


KLAR - Laramie Regional

CURRENT METAR :
  • 220720Z AUTO 16012KT 8SM BKN028 OVC060 M07/M09 A3000 RMK AO2 T10671089

EXPIRED METARs :
  • 220653Z AUTO 17011KT 10SM FEW028 M07/M09 A2999 RMK AO2 SLP190 T10671094 410441083
  • 220607Z AUTO 17009KT 10SM SCT028 M07/M09 A2999 RMK AO2 T10671089
  • 220553Z AUTO 17011KT 10SM BKN028 M07/M09 A2998 RMK AO2 SLP191 T10671089 11067 21072 58001
  • 220453Z AUTO 16014KT 9SM OVC028 M07/M09 A2999 RMK AO2 SLP194 T10671089

TAF KLAR
Valid from the 22 at 06:00 until the 23 at 06:00 UTC


220524Z 2206/2306 16015KT P6SM BKN025
FM220800 16006KT 6SM BR BKN025
FM221200 VRB03KT 5SM BR BKN020
FM221600 31006KT P6SM FEW025



MET'MAP, your aeronautical weather chart ! - Copyright ORBIFLY December 2007 - Disclaimer

ORBIFLY MET'MAP TEAM :

Programming & Development : Alexandra Zaïnal
Concept & Development : Baudouin d'Aumeries
Co-Development & Prog : Marc-Olivier Méhu
Technical & hardware support : Manuel Goepfert

Contact : metmap@orbifly.com




SOURCES & CREDITS :

   NOAA       Earth
Advisory